Time;durP1;ratioP1;P1;durP2;ratioP2;P2;SDS_P1;SDS_P2;PMS_P1;PMS_P2;Temp;Humidity;BMP_temperature;BMP_pressure;BME280_temperature;BME280_humidity;BME280_pressure;Samples;Min_cycle;Max_cycle;Signal;HPM_P1;HPM_P2
2020/12/27 00:01:00;;;;;;;8.48;4.70;;;;;;;;;;6361911;27;20088;-80
2020/12/27 00:04:02;;;;;;;6.78;5.07;;;;;;;;;;6337489;27;20027;-78
2020/12/27 00:07:10;;;;;;;7.20;4.75;;;-3.20;99.90;;;;;;6337552;28;20310;-80
2020/12/27 00:10:10;;;;;;;8.07;5.30;;;;;;;;;;6355158;28;20050;-79
2020/12/27 00:13:11;;;;;;;9.75;5.13;;;;;;;;;;6337578;28;20031;-79
2020/12/27 00:16:12;;;;;;;7.38;4.80;;;;;;;;;;6337621;28;20020;-81
2020/12/27 00:19:13;;;;;;;8.77;4.78;;;;;;;;;;6354614;28;20170;-79
2020/12/27 00:22:15;;;;;;;7.70;4.97;;;;;;;;;;6354208;28;20023;-79
2020/12/27 00:25:16;;;;;;;8.23;4.60;;;;;;;;;;6354096;28;20023;-79
2020/12/27 00:28:17;;;;;;;8.02;4.45;;;-3.40;99.90;;;;;;6337505;28;20011;-80
2020/12/27 00:31:17;;;;;;;8.85;5.05;;;-1.40;99.70;;;;;;6354180;28;20061;-79
2020/12/27 00:34:18;;;;;;;6.80;4.78;;;-3.40;99.10;;;;;;6337043;28;20368;-80
2020/12/27 00:37:19;;;;;;;7.22;4.65;;;-3.40;98.80;;;;;;6320440;28;20023;-79
2020/12/27 00:40:20;;;;;;;8.15;5.10;;;-3.10;98.70;;;;;;6337262;28;20109;-81
2020/12/27 00:43:20;;;;;;;8.48;5.22;;;-2.20;99.10;;;;;;6357137;27;20023;-80
2020/12/27 00:46:21;;;;;;;7.25;4.72;;;-3.20;98.90;;;;;;6359156;27;20373;-79
2020/12/27 00:49:22;;;;;;;11.02;5.63;;;;;;;;;;6341864;27;20023;-81
2020/12/27 00:52:22;;;;;;;7.03;5.07;;;-3.40;96.80;;;;;;6342298;27;20049;-81
2020/12/27 00:55:23;;;;;;;6.75;4.40;;;-3.40;99.90;;;;;;6358603;27;20019;-79
2020/12/27 00:58:24;;;;;;;8.52;4.80;;;-3.30;97.90;;;;;;6341516;27;20624;-81
2020/12/27 01:01:24;;;;;;;9.88;5.00;;;-3.20;97.80;;;;;;6309629;28;20138;-81
2020/12/27 01:04:25;;;;;;;7.20;4.60;;;-3.30;97.30;;;;;;6307980;28;20058;-79
2020/12/27 01:07:25;;;;;;;7.90;5.03;;;-3.20;97.50;;;;;;6291322;28;20513;-81
2020/12/27 01:10:26;;;;;;;6.78;4.65;;;-3.30;97.40;;;;;;6307790;28;20024;-80
2020/12/27 01:13:27;;;;;;;7.93;4.78;;;-1.60;98.10;;;;;;6324925;28;20039;-80
2020/12/27 01:16:28;;;;;;;9.82;5.18;;;-3.20;97.20;;;;;;6307873;28;20032;-81
2020/12/27 01:19:28;;;;;;;7.72;4.75;;;-3.40;98.10;;;;;;6324323;28;20031;-82
2020/12/27 01:22:33;;;;;;;9.57;5.60;;;-1.70;98.40;;;;;;6290779;28;20020;-80
2020/12/27 01:25:33;;;;;;;7.40;5.30;;;-3.30;98.30;;;;;;6307654;28;20051;-82
2020/12/27 01:28:34;;;;;;;11.98;5.25;;;-3.30;98.30;;;;;;6324352;28;20369;-80
2020/12/27 01:31:34;;;;;;;12.32;5.43;;;-3.20;97.70;;;;;;6307299;28;20450;-82
2020/12/27 01:34:35;;;;;;;10.52;5.97;;;-3.20;98.10;;;;;;6307146;28;20020;-80
2020/12/27 01:37:36;;;;;;;8.15;6.32;;;-2.20;98.00;;;;;;6307080;28;20103;-80
2020/12/27 01:40:36;;;;;;;10.23;5.90;;;-3.20;97.30;;;;;;6324215;28;20446;-80
2020/12/27 01:43:37;;;;;;;7.35;5.10;;;-3.40;97.30;;;;;;6307597;28;20028;-80
2020/12/27 01:46:42;;;;;;;11.00;5.38;;;-3.20;96.70;;;;;;6306956;28;20024;-81
2020/12/27 01:49:43;;;;;;;9.27;5.30;;;-3.20;99.90;;;;;;6307147;28;20097;-80
2020/12/27 01:52:44;;;;;;;9.90;6.38;;;-3.30;97.50;;;;;;6289655;28;20374;-81
2020/12/27 01:55:45;;;;;;;8.85;5.90;;;-1.30;98.00;;;;;;6306996;28;20028;-80
2020/12/27 01:58:46;;;;;;;10.25;5.25;;;;;;;;;;6308258;27;20023;-81
2020/12/27 02:01:47;;;;;;;10.95;5.57;;;-3.20;96.00;;;;;;6357652;27;20015;-81
2020/12/27 02:04:48;;;;;;;8.10;5.22;;;;;;;;;;6323659;27;20380;-83
2020/12/27 02:07:48;;;;;;;11.77;5.82;;;-3.10;95.70;;;;;;6357400;27;20107;-83
2020/12/27 02:10:49;;;;;;;8.27;5.80;;;-2.00;97.90;;;;;;6339827;27;20453;-80
2020/12/27 02:13:53;;;;;;;8.80;5.63;;;-3.30;97.40;;;;;;6340112;27;20030;-81
2020/12/27 02:16:53;;;;;;;7.90;5.15;;;-2.90;96.60;;;;;;6340330;27;20030;-79
2020/12/27 02:19:54;;;;;;;10.18;5.50;;;-3.10;97.80;;;;;;6356803;27;20031;-81
2020/12/27 02:22:55;;;;;;;10.25;5.53;;;-0.70;98.20;;;;;;6339772;27;20046;-80
2020/12/27 02:25:55;;;;;;;9.48;5.00;;;-3.10;97.30;;;;;;6339522;27;20384;-83
2020/12/27 02:28:56;;;;;;;8.68;5.78;;;-3.10;97.20;;;;;;6322786;27;20031;-83
2020/12/27 02:31:57;;;;;;;6.38;4.95;;;-2.40;97.50;;;;;;6339591;27;20038;-80
2020/12/27 02:34:58;;;;;;;8.60;5.28;;;-3.10;97.10;;;;;;6339380;27;20461;-81
2020/12/27 02:37:58;;;;;;;13.02;5.05;;;-2.80;99.90;;;;;;6322477;27;20106;-80
2020/12/27 02:40:59;;;;;;;7.18;4.60;;;-3.00;99.90;;;;;;6356179;27;20020;-81
2020/12/27 02:44:00;;;;;;;8.65;5.22;;;-3.10;99.90;;;;;;6339029;27;20475;-83
2020/12/27 02:47:00;;;;;;;9.13;4.45;;;-3.00;99.90;;;;;;6339460;27;20094;-80
2020/12/27 02:50:01;;;;;;;7.80;4.80;;;;;;;;;;6338839;27;20046;-80
2020/12/27 02:53:02;;;;;;;8.32;4.95;;;-2.80;99.90;;;;;;6338682;27;20019;-81
2020/12/27 02:56:03;;;;;;;9.38;5.50;;;-3.20;99.90;;;;;;6338803;27;20053;-80
2020/12/27 02:59:03;;;;;;;10.40;6.25;;;-3.00;99.90;;;;;;6338432;27;20047;-79
2020/12/27 03:02:07;;;;;;;8.65;5.35;;;;;;;;;;6339125;27;20023;-81
2020/12/27 03:05:08;;;;;;;9.65;5.78;;;;;;;;;;6338119;27;20026;-81
2020/12/27 03:08:09;;;;;;;8.98;5.32;;;;;;;;;;6355966;27;20023;-83
2020/12/27 03:11:09;;;;;;;9.48;4.72;;;-3.00;99.90;;;;;;6355415;27;20026;-81
2020/12/27 03:14:11;;;;;;;8.52;5.32;;;;;;;;;;6321326;27;20024;-81
2020/12/27 03:17:12;;;;;;;9.23;5.68;;;-2.80;99.90;;;;;;6373687;27;20414;-79
2020/12/27 03:20:16;;;;;;;8.45;5.60;;;;;;;;;;6321169;27;20072;-80
2020/12/27 03:23:17;;;;;;;7.15;4.63;;;;;;;;;;6338687;27;20011;-81
2020/12/27 03:26:18;;;;;;;7.45;4.90;;;;;;;;;;6338326;27;20015;-81
2020/12/27 03:29:19;;;;;;;6.88;4.97;;;;;;;;;;6355339;27;20026;-81
2020/12/27 03:32:19;;;;;;;10.60;5.00;;;-2.90;99.90;;;;;;6354961;27;20430;-81
2020/12/27 03:35:20;;;;;;;8.70;4.80;;;;;;;;;;6338351;27;20043;-80
2020/12/27 03:38:21;;;;;;;10.52;5.25;;;;;;;;;;6373088;27;20011;-81
2020/12/27 03:41:22;;;;;;;8.27;4.80;;;;;;;;;;6354793;27;20109;-81
2020/12/27 03:44:23;;;;;;;7.70;4.93;;;;;;;;;;6354857;27;20019;-80
2020/12/27 03:47:25;;;;;;;7.20;5.10;;;;;;;;;;6373127;27;20406;-80
2020/12/27 03:50:25;;;;;;;6.85;4.75;;;;;;;;;;6354946;27;20023;-81
2020/12/27 03:53:26;;;;;;;6.10;4.70;;;-2.70;99.90;;;;;;6373232;27;20020;-81
2020/12/27 03:56:27;;;;;;;7.65;4.60;;;-1.70;97.40;;;;;;6337745;27;20051;-80
2020/12/27 03:59:27;;;;;;;7.30;4.72;;;-1.50;97.70;;;;;;6320748;27;20051;-80
2020/12/27 04:02:28;;;;;;;7.65;4.95;;;-2.80;97.30;;;;;;6338192;28;20382;-80
2020/12/27 04:05:28;;;;;;;7.75;5.55;;;-2.70;96.90;;;;;;6337531;28;20023;-83
2020/12/27 04:08:29;;;;;;;8.70;5.10;;;-2.80;96.80;;;;;;6354586;28;20034;-80
2020/12/27 04:11:30;;;;;;;7.47;4.90;;;-3.00;96.80;;;;;;6354618;28;20038;-82
2020/12/27 04:14:30;;;;;;;7.57;5.03;;;-1.10;97.20;;;;;;6320912;28;20019;-80
2020/12/27 04:17:31;;;;;;;6.93;5.20;;;-2.20;96.80;;;;;;6341526;27;20023;-81
2020/12/27 04:20:32;;;;;;;8.27;5.55;;;-1.10;96.90;;;;;;6342365;27;20019;-82
2020/12/27 04:23:32;;;;;;;8.35;5.10;;;-2.70;96.70;;;;;;6325707;27;20020;-80
2020/12/27 04:26:33;;;;;;;7.82;5.28;;;-2.90;96.80;;;;;;6359230;27;20024;-80
2020/12/27 04:29:33;;;;;;;6.95;5.10;;;-1.80;97.20;;;;;;6325312;27;20019;-81
2020/12/27 04:32:34;;;;;;;8.23;5.65;;;-2.70;99.90;;;;;;6325182;27;20019;-80
2020/12/27 04:35:35;;;;;;;6.07;4.72;;;-3.00;96.70;;;;;;6359602;27;20511;-83
2020/12/27 04:38:35;;;;;;;7.93;5.22;;;-2.90;96.50;;;;;;6342278;27;20098;-80
2020/12/27 04:41:36;;;;;;;7.88;5.80;;;;;;;;;;6325297;27;20380;-82
2020/12/27 04:44:37;;;;;;;8.20;4.90;;;-2.70;95.10;;;;;;6377457;27;20082;-82
2020/12/27 04:47:38;;;;;;;11.38;5.05;;;-2.50;97.30;;;;;;6342256;27;20055;-81
2020/12/27 04:50:38;;;;;;;10.68;5.60;;;-1.20;97.50;;;;;;6342173;27;20033;-84
2020/12/27 04:53:40;;;;;;;7.80;4.93;;;-1.10;97.90;;;;;;6324835;27;20136;-81
2020/12/27 04:56:41;;;;;;;8.75;5.63;;;-2.80;97.70;;;;;;6324767;27;20019;-80
2020/12/27 04:59:47;;;;;;;9.20;5.80;;;-2.20;97.70;;;;;;6307148;28;20055;-80
2020/12/27 05:02:47;;;;;;;8.70;5.35;;;-0.20;98.20;;;;;;6291971;28;20408;-80
2020/12/27 05:05:49;;;;;;;6.50;4.45;;;-3.10;97.80;;;;;;6325159;28;20024;-80
2020/12/27 05:08:49;;;;;;;6.65;5.03;;;-3.00;98.20;;;;;;6308069;28;20355;-82
2020/12/27 05:12:46;;;;;;;7.30;5.03;;;-1.90;98.70;;;;;;6293765;28;20040;-79
2020/12/27 05:15:47;;;;;;;11.00;5.00;;;-2.90;97.20;;;;;;6324802;28;20101;-80
2020/12/27 05:18:51;;;;;;;9.20;5.60;;;-2.90;98.10;;;;;;6324760;28;20032;-81
2020/12/27 05:21:54;;;;;;;11.52;5.00;;;-3.00;97.90;;;;;;6291516;28;20028;-81
2020/12/27 05:24:55;;;;;;;;;;;-1.80;98.30;;;;;;6291176;28;20024;-80
2020/12/27 05:27:59;;;;;;;7.65;5.07;;;-2.90;98.10;;;;;;6323778;28;19903;-80
2020/12/27 05:31:12;;;;;;;6.60;4.68;;;-3.00;97.90;;;;;;6291239;28;20081;-79
2020/12/27 05:34:13;;;;;;;8.70;5.07;;;-2.80;96.90;;;;;;6307975;28;20020;-80
2020/12/27 05:37:14;;;;;;;7.38;5.43;;;-2.90;97.60;;;;;;6290859;28;20052;-81
2020/12/27 05:40:15;;;;;;;8.27;5.25;;;-2.20;98.30;;;;;;6290876;28;20025;-80
2020/12/27 05:43:16;;;;;;;10.90;6.22;;;-3.00;98.10;;;;;;6324530;28;20028;-80
2020/12/27 05:46:20;;;;;;;11.35;6.32;;;-3.00;98.10;;;;;;6290471;28;20028;-80
2020/12/27 05:49:20;;;;;;;11.23;6.65;;;-2.40;98.60;;;;;;6290457;28;20020;-82
2020/12/27 05:52:22;;;;;;;6.03;4.93;;;-1.60;98.30;;;;;;6323803;28;20378;-79
2020/12/27 05:55:23;;;;;;;8.23;5.70;;;;;;;;;;6290303;28;20020;-81
2020/12/27 05:58:23;;;;;;;10.88;5.55;;;-2.80;96.20;;;;;;6324983;28;20020;-80
2020/12/27 06:01:24;;;;;;;7.70;5.95;;;-2.80;99.90;;;;;;6323730;28;20058;-79
2020/12/27 06:04:52;;;;;;;8.43;5.68;;;-2.80;97.20;;;;;;6306847;28;20400;-80
2020/12/27 06:07:56;;;;;;;10.18;5.07;;;-2.80;96.70;;;;;;6324178;28;20470;-79
2020/12/27 06:11:06;;;;;;;7.30;4.72;;;-2.80;97.80;;;;;;6306967;28;20032;-81
2020/12/27 06:18:08;;;;;;;6.45;4.13;;;-2.70;96.50;;;;;;6324813;28;20474;-83
2020/12/27 06:21:09;;;;;;;6.53;4.50;;;-2.70;97.60;;;;;;6306319;28;20035;-80
2020/12/27 06:24:12;;;;;;;4.80;3.78;;;-1.10;97.60;;;;;;6306397;28;20023;-80
2020/12/27 06:27:12;;;;;;;;;;;-2.40;97.10;;;;;;6306684;28;20020;-80
2020/12/27 06:30:23;;;;;;;8.15;5.47;;;-1.40;97.40;;;;;;6307158;28;20384;-81
2020/12/27 06:33:26;;;;;;;14.48;8.85;;;-1.90;97.20;;;;;;6291090;28;20028;-80
2020/12/27 06:36:30;;;;;;;;;;;-1.40;97.10;;;;;;6307361;28;20073;-82
2020/12/27 06:39:56;;;;;;;65.63;29.58;;;-2.60;96.00;;;;;;6325563;28;19967;-78
2020/12/27 06:43:21;;;;;;;8.23;5.90;;;-2.60;96.20;;;;;;6298618;28;20138;-80
2020/12/27 06:46:31;;;;;;;13.40;6.60;;;-2.60;95.90;;;;;;6307035;28;20023;-80
2020/12/27 06:50:09;;;;;;;6.25;4.32;;;-2.80;99.90;;;;;;6290705;28;20031;-81
2020/12/27 06:53:11;;;;;;;10.95;4.85;;;-2.70;99.90;;;;;;6334866;28;20059;-83
2020/12/27 07:04:15;;;;;;;9.32;4.97;;;-2.60;99.90;;;;;;6380051;27;20019;-82
2020/12/27 07:07:15;;;;;;;7.68;4.65;;;-2.80;97.10;;;;;;6322337;27;20457;-80
2020/12/27 07:10:16;;;;;;;10.52;5.10;;;-2.50;97.20;;;;;;6338904;27;20027;-82
2020/12/27 07:13:17;;;;;;;7.07;5.40;;;-2.70;97.20;;;;;;6321935;27;20024;-81
2020/12/27 07:16:18;;;;;;;13.00;5.82;;;-0.30;97.90;;;;;;6321642;27;20037;-80
2020/12/27 07:19:18;;;;;;;19.27;12.18;;;-2.80;97.50;;;;;;6355335;27;20015;-81
2020/12/27 07:22:21;;;;;;;8.80;5.72;;;-2.90;97.60;;;;;;6321694;27;20024;-81
2020/12/27 07:25:22;;;;;;;7.13;5.22;;;-2.80;97.40;;;;;;6338980;27;20118;-81
2020/12/27 07:28:23;;;;;;;6.75;4.85;;;-2.90;97.40;;;;;;6321975;27;20100;-82
2020/12/27 07:31:42;;;;;;;6.43;4.30;;;-2.80;99.90;;;;;;6326345;27;20028;-79
2020/12/27 07:34:50;;;;;;;8.05;5.07;;;-2.70;96.60;;;;;;6314847;28;20032;-80
2020/12/27 07:38:01;;;;;;;9.25;6.50;;;-1.80;97.80;;;;;;6313037;28;20023;-80
2020/12/27 07:41:01;;;;;;;12.07;7.50;;;-1.70;97.90;;;;;;6313109;28;20432;-81
2020/12/27 07:44:02;;;;;;;14.10;8.50;;;-2.30;99.90;;;;;;6348182;28;20020;-79
2020/12/27 07:47:05;;;;;;;7.18;5.70;;;-1.30;97.60;;;;;;6313416;28;20032;-78
2020/12/27 07:50:25;;;;;;;8.80;6.45;;;-1.20;96.80;;;;;;6313160;28;20019;-81
2020/12/27 07:53:29;;;;;;;9.65;7.10;;;-2.50;99.90;;;;;;6315014;28;20020;-79
2020/12/27 07:56:30;;;;;;;13.45;5.32;;;-2.00;99.90;;;;;;6296058;28;20069;-79
2020/12/27 07:59:31;;;;;;;7.10;5.07;;;-2.30;99.90;;;;;;6330440;28;20023;-80
2020/12/27 08:02:32;;;;;;;6.07;3.97;;;-2.20;99.90;;;;;;6346852;28;20044;-78
2020/12/27 08:05:42;;;;;;;5.07;4.20;;;-2.60;96.70;;;;;;6295734;28;20024;-84
2020/12/27 08:08:46;;;;;;;5.75;4.53;;;-2.10;96.80;;;;;;6295918;28;20024;-78
2020/12/27 08:11:46;;;;;;;5.63;4.20;;;-2.00;96.50;;;;;;6329142;28;20043;-78
2020/12/27 08:14:47;;;;;;;4.85;3.58;;;-1.90;96.40;;;;;;6312767;28;20358;-78
2020/12/27 08:18:12;;;;;;;4.90;3.67;;;-2.00;96.00;;;;;;6312856;28;20015;-79
2020/12/27 08:21:19;;;;;;;5.53;4.05;;;-1.70;96.90;;;;;;6315147;28;20023;-78
2020/12/27 08:24:19;;;;;;;7.53;4.22;;;-0.70;95.70;;;;;;6329647;28;20032;-80
2020/12/27 08:27:20;;;;;;;4.30;3.70;;;-1.30;99.90;;;;;;6347563;28;20016;-81
2020/12/27 08:30:20;;;;;;;5.05;4.00;;;0.60;95.70;;;;;;6312307;28;20036;-79
2020/12/27 08:33:46;;;;;;;4.78;3.60;;;-1.30;99.90;;;;;;6312603;28;20463;-80
2020/12/27 08:36:57;;;;;;;33.10;17.40;;;-0.20;93.80;;;;;;6311425;28;20080;-79
2020/12/27 08:39:57;;;;;;;5.40;3.80;;;-1.20;94.90;;;;;;6312545;28;20028;-79
2020/12/27 08:42:58;;;;;;;5.80;4.30;;;-1.00;99.90;;;;;;6312394;28;20046;-79
2020/12/27 08:45:59;;;;;;;4.90;3.78;;;0.20;99.90;;;;;;6312356;28;20375;-79
2020/12/27 08:49:04;;;;;;;23.67;14.57;;;1.20;94.90;;;;;;6295209;28;20035;-81
2020/12/27 08:52:21;;;;;;;6.18;4.22;;;-0.90;99.90;;;;;;6335316;27;20421;-80
2020/12/27 08:55:27;;;;;;;8.82;5.43;;;-0.70;93.00;;;;;;6349201;27;20106;-79
2020/12/27 08:58:28;;;;;;;8.85;5.30;;;1.00;94.70;;;;;;6363530;27;20535;-83
2020/12/27 09:01:29;;;;;;;6.25;5.22;;;0.70;94.50;;;;;;6361675;27;20043;-80
2020/12/27 09:04:30;;;;;;;5.35;3.75;;;-0.30;93.50;;;;;;6365402;27;20025;-80
2020/12/27 09:07:37;;;;;;;5.10;4.40;;;0.20;93.10;;;;;;6383781;27;20031;-79
2020/12/27 09:10:39;;;;;;;5.45;4.35;;;-0.10;91.80;;;;;;6363761;27;20058;-82
2020/12/27 09:13:41;;;;;;;6.20;3.80;;;0.80;93.20;;;;;;6324405;27;20540;-80
2020/12/27 09:16:41;;;;;;;5.63;4.07;;;0.80;93.20;;;;;;6323935;27;20123;-79
2020/12/27 09:19:45;;;;;;;6.10;5.25;;;0.30;93.00;;;;;;6324381;27;20023;-80
2020/12/27 09:22:46;;;;;;;5.30;4.35;;;0.30;93.30;;;;;;6340848;27;20025;-79
2020/12/27 09:25:47;;;;;;;9.32;6.07;;;0.30;93.40;;;;;;6376075;27;20469;-79
2020/12/27 09:28:48;;;;;;;6.53;5.40;;;0.30;93.80;;;;;;6340507;27;20019;-79
2020/12/27 09:31:48;;;;;;;13.75;10.10;;;0.50;98.00;;;;;;6357531;27;20065;-79
2020/12/27 09:34:54;;;;;;;8.05;6.00;;;1.20;94.70;;;;;;6356882;27;20018;-78
2020/12/27 09:37:55;;;;;;;8.35;7.47;;;0.70;93.90;;;;;;6357563;27;20123;-80
2020/12/27 09:41:11;;;;;;;30.08;13.30;;;1.50;94.00;;;;;;6356876;27;20019;-80
2020/12/27 09:44:12;;;;;;;8.57;5.43;;;0.60;92.80;;;;;;6341551;27;20019;-79
2020/12/27 09:47:21;;;;;;;12.40;10.05;;;0.90;94.30;;;;;;6373450;27;20034;-78
2020/12/27 09:50:31;;;;;;;6.97;4.70;;;2.00;94.60;;;;;;6357691;27;20031;-80
2020/12/27 09:53:32;;;;;;;9.63;5.80;;;0.80;93.40;;;;;;6357701;27;20075;-80
2020/12/27 09:56:42;;;;;;;6.40;4.38;;;2.00;95.00;;;;;;6376146;27;20441;-80
2020/12/27 09:59:43;;;;;;;4.85;3.58;;;1.10;94.80;;;;;;6318895;28;20024;-79
2020/12/27 10:02:44;;;;;;;4.78;3.67;;;2.10;95.00;;;;;;6315531;28;20072;-79
2020/12/27 10:05:45;;;;;;;7.28;5.50;;;1.10;94.60;;;;;;6315045;28;20095;-79
2020/12/27 10:08:45;;;;;;;8.38;5.43;;;1.60;94.60;;;;;;6350171;28;20023;-79
2020/12/27 10:11:46;;;;;;;49.47;26.85;;;2.60;95.00;;;;;;6331799;28;20043;-79
2020/12/27 10:14:47;;;;;;;5.63;4.25;;;2.80;94.40;;;;;;6331600;28;20020;-80
2020/12/27 10:17:47;;;;;;;13.38;8.90;;;2.10;94.10;;;;;;6332197;28;20036;-81
2020/12/27 10:20:48;;;;;;;5.78;4.57;;;2.70;94.00;;;;;;6331463;28;20023;-81
2020/12/27 10:23:48;;;;;;;7.45;5.80;;;3.40;93.60;;;;;;6349877;28;20446;-79
2020/12/27 10:26:49;;;;;;;8.50;6.68;;;3.00;93.50;;;;;;6331373;28;20337;-79
2020/12/27 10:29:50;;;;;;;5.25;3.70;;;2.60;94.80;;;;;;6314515;28;20141;-79
2020/12/27 10:32:51;;;;;;;4.10;2.92;;;2.20;99.80;;;;;;6349784;28;20019;-79
2020/12/27 10:35:51;;;;;;;10.10;9.20;;;3.40;93.00;;;;;;6331585;28;20055;-78
2020/12/27 10:38:52;;;;;;;6.32;5.72;;;3.50;91.80;;;;;;6331529;28;20024;-78
2020/12/27 10:41:53;;;;;;;4.30;3.90;;;2.90;91.30;;;;;;6331669;28;20024;-78
2020/12/27 10:44:54;;;;;;;6.97;6.28;;;3.10;91.40;;;;;;6319957;27;20100;-79
2020/12/27 10:47:54;;;;;;;4.22;3.50;;;3.20;91.40;;;;;;6374852;27;20774;-78
2020/12/27 10:50:55;;;;;;;14.82;9.50;;;4.10;91.90;;;;;;6339500;27;20098;-79
2020/12/27 10:54:56;;;;;;;6.55;3.28;;;3.90;92.10;;;;;;6356191;27;20031;-79
2020/12/27 10:57:56;;;;;;;3.50;2.90;;;2.60;90.60;;;;;;6361617;27;20031;-79
2020/12/27 11:00:57;;;;;;;4.28;3.00;;;3.90;92.10;;;;;;6374265;27;20047;-81
2020/12/27 11:03:57;;;;;;;16.73;8.80;;;2.60;92.10;;;;;;6374173;27;20023;-84
2020/12/27 11:06:58;;;;;;;17.75;8.27;;;3.50;92.70;;;;;;6338664;27;20520;-78
2020/12/27 11:09:59;;;;;;;6.03;4.03;;;4.30;91.70;;;;;;6355980;27;20059;-80
2020/12/27 11:12:59;;;;;;;8.90;5.68;;;3.70;92.20;;;;;;6355352;27;20449;-79
2020/12/27 11:16:00;;;;;;;5.30;3.80;;;3.60;92.40;;;;;;6355951;27;20023;-78
2020/12/27 11:19:01;;;;;;;3.63;3.30;;;3.30;91.90;;;;;;6338299;27;20019;-79
2020/12/27 11:22:01;;;;;;;10.75;6.97;;;3.50;92.10;;;;;;6338464;27;20027;-78
2020/12/27 11:25:03;;;;;;;4.55;2.80;;;3.20;91.90;;;;;;6338253;27;20084;-80
2020/12/27 11:28:03;;;;;;;5.53;3.20;;;3.50;91.50;;;;;;6338005;27;20030;-80
2020/12/27 11:31:04;;;;;;;21.75;13.00;;;3.80;91.50;;;;;;6373555;27;20481;-79
2020/12/27 11:34:04;;;;;;;45.13;20.30;;;3.80;90.00;;;;;;6373789;27;20027;-79
2020/12/27 11:37:05;;;;;;;4.25;2.85;;;3.80;90.00;;;;;;6373492;27;20027;-81
2020/12/27 11:40:06;;;;;;;6.45;2.78;;;3.80;89.10;;;;;;6321183;27;20453;-81
2020/12/27 11:43:06;;;;;;;3.10;2.80;;;4.10;89.00;;;;;;6338440;27;20019;-81
2020/12/27 11:46:07;;;;;;;2.47;2.25;;;4.70;90.00;;;;;;6338140;27;20023;-80
2020/12/27 11:49:08;;;;;;;1.80;1.70;;;3.80;84.70;;;;;;6355698;27;20492;-83
2020/12/27 11:52:08;;;;;;;2.67;2.35;;;3.50;94.30;;;;;;6337913;27;20126;-80
2020/12/27 11:55:09;;;;;;;2.83;2.40;;;4.00;83.20;;;;;;6338002;27;20025;-79
2020/12/27 11:58:09;;;;;;;3.35;2.28;;;4.50;84.20;;;;;;6354938;27;20019;-77
2020/12/27 12:01:11;;;;;;;3.05;2.42;;;4.60;95.70;;;;;;6372640;27;20071;-78
2020/12/27 12:04:12;;;;;;;4.45;2.95;;;4.60;83.40;;;;;;6337918;27;20457;-79
2020/12/27 12:07:13;;;;;;;2.90;2.42;;;5.00;93.50;;;;;;6354818;28;20118;-79
2020/12/27 12:10:13;;;;;;;2.97;2.50;;;4.20;87.60;;;;;;6373503;28;20073;-82
2020/12/27 12:13:14;;;;;;;2.22;1.92;;;4.30;87.00;;;;;;6337554;28;20049;-79
2020/12/27 12:16:20;;;;;;;3.10;2.70;;;4.70;87.40;;;;;;6354877;28;20031;-79
2020/12/27 12:19:21;;;;;;;3.88;2.90;;;3.90;90.00;;;;;;6354668;28;20054;-81
2020/12/27 12:22:21;;;;;;;2.60;2.08;;;4.40;90.50;;;;;;6354663;28;20023;-79
2020/12/27 12:25:22;;;;;;;2.53;2.28;;;4.00;89.60;;;;;;6320597;28;20055;-78
2020/12/27 12:28:23;;;;;;;2.65;2.40;;;4.10;90.50;;;;;;6337563;27;20027;-78
2020/12/27 12:31:24;;;;;;;6.22;2.92;;;3.80;90.40;;;;;;6354291;28;20051;-78
2020/12/27 12:34:24;;;;;;;2.83;2.33;;;4.70;95.00;;;;;;6337408;28;20445;-78
2020/12/27 12:37:25;;;;;;;2.20;2.00;;;4.30;90.60;;;;;;6356167;27;20024;-79
2020/12/27 12:40:26;;;;;;;2.20;1.80;;;4.50;90.50;;;;;;6377687;27;20019;-78
2020/12/27 12:43:30;;;;;;;2.28;1.83;;;4.30;90.30;;;;;;6356042;27;20026;-79
2020/12/27 12:46:31;;;;;;;3.78;2.90;;;4.20;90.90;;;;;;6354683;27;20453;-78
2020/12/27 12:49:32;;;;;;;2.63;2.25;;;4.10;91.10;;;;;;6341190;27;20015;-77
2020/12/27 12:52:32;;;;;;;5.00;3.35;;;4.30;91.90;;;;;;6377576;27;20031;-78
2020/12/27 12:55:39;;;;;;;4.47;3.85;;;3.70;98.60;;;;;;6345283;27;20015;-78
2020/12/27 12:58:40;;;;;;;5.38;4.05;;;4.20;91.70;;;;;;6345487;27;20018;-77
2020/12/27 13:01:40;;;;;;;4.78;3.10;;;4.00;91.90;;;;;;6358510;27;20035;-76
2020/12/27 13:04:44;;;;;;;4.57;3.17;;;4.30;92.30;;;;;;6357520;27;20043;-78
2020/12/27 13:07:45;;;;;;;5.47;3.90;;;4.10;91.90;;;;;;6357831;27;20019;-80
2020/12/27 13:10:45;;;;;;;12.05;7.80;;;4.50;92.40;;;;;;6357662;27;20026;-80
2020/12/27 13:13:46;;;;;;;5.18;3.47;;;3.90;92.60;;;;;;6375869;27;20031;-77
2020/12/27 13:16:46;;;;;;;5.53;4.30;;;4.00;92.30;;;;;;6357902;27;20449;-78
2020/12/27 13:19:47;;;;;;;10.80;9.73;;;4.60;93.00;;;;;;6339842;27;20031;-81
2020/12/27 13:22:47;;;;;;;4.18;3.17;;;4.20;93.10;;;;;;6346295;28;20043;-79
2020/12/27 13:25:48;;;;;;;2.88;2.55;;;3.00;92.70;;;;;;6356946;27;20031;-79
2020/12/27 13:28:49;;;;;;;2.75;2.45;;;4.00;92.40;;;;;;6341465;27;20019;-80
2020/12/27 13:31:49;;;;;;;5.15;4.65;;;4.20;92.40;;;;;;6358425;27;20031;-80
2020/12/27 13:34:50;;;;;;;3.25;2.65;;;4.00;92.80;;;;;;6358251;27;20394;-77
2020/12/27 13:37:50;;;;;;;3.05;2.70;;;4.30;92.70;;;;;;6357726;27;20020;-77
2020/12/27 13:40:51;;;;;;;3.35;2.55;;;3.90;92.90;;;;;;6357889;27;20102;-79
2020/12/27 13:43:52;;;;;;;3.25;2.60;;;3.90;92.90;;;;;;6375726;27;20406;-77
2020/12/27 13:46:52;;;;;;;3.88;2.28;;;4.00;93.00;;;;;;6357951;27;20067;-78
2020/12/27 13:49:53;;;;;;;2.25;1.70;;;3.80;93.20;;;;;;6375666;27;20111;-77
2020/12/27 13:52:54;;;;;;;2.60;2.40;;;3.60;93.40;;;;;;6340995;27;20031;-78
2020/12/27 13:55:54;;;;;;;2.53;2.10;;;3.40;93.50;;;;;;6323185;27;20106;-78
2020/12/27 13:58:55;;;;;;;3.35;2.78;;;3.90;93.30;;;;;;6357659;27;20076;-77
2020/12/27 14:01:56;;;;;;;6.15;4.13;;;3.20;93.20;;;;;;6340521;27;20047;-78
2020/12/27 14:04:57;;;;;;;6.35;4.55;;;3.60;93.70;;;;;;6375932;27;20056;-76
2020/12/27 14:07:57;;;;;;;4.35;2.38;;;3.90;93.40;;;;;;6357114;27;20027;-77
2020/12/27 14:10:58;;;;;;;2.15;1.95;;;3.90;93.00;;;;;;6375588;27;20102;-76
2020/12/27 14:13:58;;;;;;;2.30;2.10;;;3.60;93.00;;;;;;6374548;27;20479;-76
2020/12/27 14:16:59;;;;;;;27.73;13.30;;;4.30;92.80;;;;;;6356586;27;20023;-77
2020/12/27 14:19:59;;;;;;;18.27;9.15;;;3.20;93.20;;;;;;6375490;27;20416;-79
2020/12/27 14:23:02;;;;;;;17.67;11.18;;;3.10;92.10;;;;;;6369099;27;20356;-76
2020/12/27 14:26:02;;;;;;;6.63;4.55;;;4.20;78.10;;;;;;6331337;27;20031;-79
2020/12/27 14:29:03;;;;;;;6.60;4.40;;;4.50;89.80;;;;;;6356879;27;20076;-77
2020/12/27 14:32:04;;;;;;;7.20;5.10;;;4.50;86.90;;;;;;6321418;28;20061;-79
2020/12/27 14:35:05;;;;;;;8.93;6.75;;;3.60;96.60;;;;;;6330168;28;20023;-79
2020/12/27 14:38:05;;;;;;;11.68;10.38;;;3.60;97.00;;;;;;6372560;27;20410;-77
2020/12/27 14:41:06;;;;;;;7.20;5.47;;;;;;;;;;6398595;27;20011;-77
2020/12/27 14:44:07;;;;;;;14.65;11.10;;;;;;;;;;6381084;27;20106;-77
2020/12/27 14:47:08;;;;;;;25.88;17.73;;;3.30;99.90;;;;;;6398431;27;20023;-77
2020/12/27 14:50:09;;;;;;;5.60;4.05;;;;;;;;;;6399626;27;20034;-77
2020/12/27 14:53:10;;;;;;;5.57;3.38;;;3.30;95.70;;;;;;6399817;27;20329;-80
2020/12/27 14:56:10;;;;;;;3.78;3.05;;;3.80;97.40;;;;;;6382684;27;20019;-78
2020/12/27 14:59:11;;;;;;;2.55;2.33;;;3.60;91.70;;;;;;6374053;27;20015;-77
2020/12/27 15:02:12;;;;;;;4.38;2.50;;;3.70;90.50;;;;;;6372475;27;20070;-78
2020/12/27 15:05:12;;;;;;;2.58;2.38;;;4.00;90.20;;;;;;6373579;27;20094;-78
2020/12/27 15:08:13;;;;;;;5.75;3.85;;;4.20;90.50;;;;;;6374228;27;20165;-77
2020/12/27 15:11:13;;;;;;;4.07;3.30;;;3.60;90.60;;;;;;6338228;27;20043;-77
2020/12/27 15:14:14;;;;;;;2.30;2.10;;;3.70;90.70;;;;;;6343995;27;20015;-77
2020/12/27 15:17:14;;;;;;;2.80;2.20;;;3.90;90.80;;;;;;6350525;27;20084;-77
2020/12/27 15:20:15;;;;;;;3.00;2.55;;;4.60;90.00;;;;;;6336002;27;20019;-77
2020/12/27 15:23:16;;;;;;;2.70;2.00;;;3.80;90.50;;;;;;6371949;27;20031;-77
2020/12/27 15:26:17;;;;;;;2.50;2.30;;;3.70;90.80;;;;;;6373073;27;20031;-77
2020/12/27 15:29:18;;;;;;;3.78;3.00;;;3.70;90.10;;;;;;6372997;27;20048;-77
2020/12/27 15:32:18;;;;;;;3.05;2.75;;;3.80;90.80;;;;;;6366396;27;20035;-77
2020/12/27 15:35:19;;;;;;;3.13;2.83;;;3.60;90.70;;;;;;6371875;27;20080;-78
2020/12/27 15:38:20;;;;;;;2.65;2.45;;;3.00;98.20;;;;;;6353630;27;20467;-77
2020/12/27 15:41:21;;;;;;;3.20;2.63;;;3.60;91.10;;;;;;6398658;27;20019;-77
2020/12/27 15:44:21;;;;;;;10.60;6.57;;;4.00;91.50;;;;;;6377243;27;20031;-77
2020/12/27 15:47:22;;;;;;;3.28;2.63;;;3.70;90.40;;;;;;6372744;27;20037;-77
2020/12/27 15:50:22;;;;;;;2.20;2.00;;;3.50;90.30;;;;;;6372457;27;20027;-78
2020/12/27 15:53:23;;;;;;;5.07;4.15;;;3.80;90.60;;;;;;6354792;27;20449;-76
2020/12/27 15:56:24;;;;;;;3.38;2.60;;;4.10;90.60;;;;;;6352229;27;20369;-76
2020/12/27 15:59:25;;;;;;;4.97;3.90;;;3.80;90.40;;;;;;6329180;28;20442;-77
2020/12/27 16:02:29;;;;;;;3.38;2.58;;;3.90;90.60;;;;;;6311684;28;20039;-77
2020/12/27 16:05:30;;;;;;;3.13;2.42;;;4.10;90.20;;;;;;6328891;28;20024;-77
2020/12/27 16:08:31;;;;;;;5.30;3.30;;;3.70;90.70;;;;;;6346994;28;20419;-78
2020/12/27 16:11:31;;;;;;;5.07;4.57;;;3.90;90.00;;;;;;6328482;28;20023;-78
2020/12/27 16:14:32;;;;;;;4.90;3.47;;;3.80;90.10;;;;;;6328729;28;20449;-77
2020/12/27 16:17:33;;;;;;;3.30;2.92;;;3.50;90.00;;;;;;6346967;28;20038;-80